| time (UTC) | temp F | wind direction | speed knots | gust knots | rain 1hr in | rain 24hr in | rain mn in | humidity % | barometer mb |
| 20260508043218 | 28 | 0 | 0.0 | 0.0 | 0.00 | 0.00 | 0.00 | 72 | 1007.7 |
| 20260508041504 | 29 | 0 | 0.0 | 0.0 | 0.00 | 0.00 | 0.00 | 71 | 1007.8 |
| 20260508040005 | 30 | 0 | 0.0 | 0.0 | 0.00 | 0.00 | 0.00 | 70 | 1007.8 |
| 20260508034503 | 30 | 0 | 0.0 | 0.0 | 0.00 | 0.00 | 0.00 | 69 | 1008.0 |
| 20260508033004 | 31 | 0 | 0.0 | 0.0 | 0.00 | 0.00 | 0.00 | 67 | 1008.2 |
| 20260508031504 | 32 | 0 | 0.0 | 0.0 | 0.00 | 0.00 | 0.00 | 66 | 1008.2 |
| 20260508030220 | 33 | 0 | 0.0 | 0.0 | 0.00 | 0.00 | 0.00 | 64 | 1008.3 |
| 20260508024503 | 34 | 0 | 0.0 | 0.0 | 0.00 | 0.00 | 0.00 | 61 | 1008.3 |
| 20260508023004 | 36 | 0 | 0.0 | 0.0 | 0.00 | 0.00 | 0.00 | 58 | 1008.5 |
| 20260508021503 | 38 | 0 | 0.0 | 0.0 | 0.00 | 0.00 | 0.00 | 56 | 1008.4 |
| 20260508020004 | 40 | 0 | 0.0 | 0.0 | 0.00 | 0.00 | 0.00 | 52 | 1008.4 |
| 20260508014504 | 42 | 0 | 0.0 | 0.0 | 0.00 | 0.00 | 0.00 | 49 | 1008.3 |
| 20260508013004 | 44 | 286 | 0.0 | 1.7 | 0.00 | 0.00 | 0.00 | 47 | 1008.2 |
| 20260508011718 | 45 | 302 | 0.9 | 3.5 | 0.00 | 0.00 | 0.00 | 44 | 1008.3 |
| 20260508010004 | 47 | 292 | 2.6 | 6.1 | 0.00 | 0.00 | 0.00 | 40 | 1008.2 |
| 20260508004503 | 48 | 295 | 4.3 | 9.6 | 0.00 | 0.00 | 0.00 | 39 | 1008.2 |
| 20260508003003 | 49 | 286 | 5.2 | 11.3 | 0.00 | 0.00 | 0.00 | 39 | 1008.3 |
| 20260508001504 | 49 | 293 | 4.3 | 10.4 | 0.00 | 0.00 | 0.00 | 39 | 1008.3 |
| 20260508000003 | 50 | 292 | 4.3 | 13.0 | 0.00 | 0.00 | 0.00 | 38 | 1008.3 |
| 20260507234503 | 50 | 292 | 4.3 | 10.4 | 0.00 | 0.00 | 0.00 | 37 | 1008.4 |
| 20260507233004 | 50 | 294 | 7.0 | 13.0 | 0.00 | 0.00 | 0.00 | 37 | 1008.4 |
| 20260507231504 | 50 | 286 | 7.8 | 14.8 | 0.00 | 0.00 | 0.00 | 37 | 1008.5 |
| 20260507230005 | 51 | 289 | 7.0 | 16.5 | 0.00 | 0.00 | 0.00 | 38 | 1008.7 |
| 20260507224504 | 50 | 295 | 6.1 | 14.8 | 0.00 | 0.00 | 0.00 | 38 | 1008.7 |
| 20260507223218 | 50 | 302 | 5.2 | 15.6 | 0.00 | 0.00 | 0.00 | 38 | 1008.8 |
| 20260507221503 | 50 | 297 | 6.1 | 15.6 | 0.00 | 0.00 | 0.00 | 38 | 1009.0 |
| 20260507220003 | 50 | 288 | 6.1 | 13.9 | 0.00 | 0.00 | 0.00 | 39 | 1009.0 |
| 20260507214503 | 50 | 299 | 5.2 | 13.9 | 0.00 | 0.00 | 0.00 | 37 | 1009.2 |
| 20260507213218 | 49 | 295 | 7.0 | 13.9 | 0.00 | 0.00 | 0.00 | 39 | 1009.3 |
| 20260507211504 | 49 | 291 | 7.8 | 16.5 | 0.00 | 0.00 | 0.00 | 40 | 1009.4 |
| 20260507210217 | 48 | 300 | 5.2 | 18.2 | 0.00 | 0.00 | 0.00 | 39 | 1009.6 |
| 20260507204718 | 49 | 293 | 4.3 | 10.4 | 0.00 | 0.00 | 0.00 | 39 | 1009.6 |
| 20260507203217 | 50 | 298 | 7.0 | 14.8 | 0.00 | 0.00 | 0.00 | 36 | 1009.7 |
| 20260507201503 | 49 | 299 | 5.2 | 12.2 | 0.00 | 0.00 | 0.00 | 36 | 1009.8 |
| 20260507200004 | 49 | 303 | 5.2 | 14.8 | 0.00 | 0.00 | 0.00 | 32 | 1009.9 |
| 20260507194504 | 48 | 291 | 6.1 | 13.0 | 0.00 | 0.00 | 0.00 | 34 | 1010.0 |
| 20260507193008 | 48 | 294 | 8.7 | 20.0 | 0.00 | 0.00 | 0.00 | 35 | 1010.1 |
| 20260507191504 | 49 | 290 | 7.0 | 15.6 | 0.00 | 0.00 | 0.00 | 37 | 1009.9 |
| 20260507190005 | 48 | 290 | 7.8 | 15.6 | 0.00 | 0.00 | 0.00 | 39 | 1009.9 |
| 20260507184504 | 48 | 287 | 7.8 | 20.0 | 0.00 | 0.00 | 0.00 | 40 | 1009.9 |
| 20260507183004 | 48 | 288 | 7.0 | 17.4 | 0.00 | 0.00 | 0.00 | 41 | 1010.0 |
| 20260507181504 | 46 | 282 | 5.2 | 14.8 | 0.00 | 0.00 | 0.00 | 44 | 1010.1 |
| 20260507180004 | 47 | 292 | 7.0 | 14.8 | 0.00 | 0.00 | 0.00 | 43 | 1010.2 |
| 20260507174720 | 46 | 300 | 7.0 | 13.9 | 0.00 | 0.00 | 0.00 | 46 | 1010.3 |
| 20260507173004 | 45 | 288 | 5.2 | 11.3 | 0.00 | 0.00 | 0.00 | 47 | 1010.6 |
| 20260507171503 | 45 | 309 | 4.3 | 11.3 | 0.00 | 0.00 | 0.00 | 48 | 1010.8 |
| 20260507170003 | 44 | 303 | 2.6 | 10.4 | 0.00 | 0.00 | 0.00 | 48 | 1011.0 |
| 20260507164504 | 43 | 337 | 3.5 | 9.6 | 0.00 | 0.00 | 0.00 | 52 | 1011.2 |
| 20260507163004 | 41 | 302 | 4.3 | 10.4 | 0.00 | 0.00 | 0.00 | 53 | 1011.3 |
| 20260507161504 | 41 | 314 | 4.3 | 10.4 | 0.00 | 0.00 | 0.00 | 54 | 1011.4 |
| 20260507160003 | 40 | 287 | 4.3 | 10.4 | 0.00 | 0.00 | 0.00 | 54 | 1011.5 |
| 20260507154504 | 39 | 303 | 3.5 | 8.7 | 0.00 | 0.00 | 0.00 | 55 | 1011.6 |
| 20260507153004 | 39 | 338 | 4.3 | 10.4 | 0.00 | 0.00 | 0.00 | 56 | 1011.7 |
| 20260507151504 | 39 | 309 | 4.3 | 10.4 | 0.00 | 0.00 | 0.00 | 58 | 1011.6 |
| 20260507150004 | 39 | 346 | 3.5 | 9.6 | 0.00 | 0.00 | 0.00 | 59 | 1011.7 |
| 20260507144503 | 37 | 319 | 3.5 | 7.0 | 0.00 | 0.00 | 0.00 | 60 | 1011.9 |
| 20260507143004 | 37 | 308 | 2.6 | 7.0 | 0.00 | 0.00 | 0.00 | 61 | 1011.9 |
| 20260507141503 | 37 | 332 | 2.6 | 7.8 | 0.00 | 0.00 | 0.00 | 64 | 1011.9 |
| 20260507140004 | 35 | 330 | 1.7 | 5.2 | 0.00 | 0.00 | 0.00 | 67 | 1012.0 |
| 20260507134503 | 34 | 336 | 3.5 | 6.1 | 0.00 | 0.00 | 0.00 | 69 | 1012.1 |
| 20260507133003 | 32 | 318 | 2.6 | 7.8 | 0.00 | 0.00 | 0.00 | 72 | 1012.1 |
| 20260507131503 | 31 | 288 | 3.5 | 7.0 | 0.00 | 0.00 | 0.00 | 74 | 1012.0 |
| 20260507130218 | 30 | 297 | 3.5 | 7.0 | 0.00 | 0.00 | 0.00 | 77 | 1012.0 |
| 20260507124503 | 28 | 309 | 1.7 | 4.3 | 0.00 | 0.00 | 0.00 | 83 | 1012.0 |
| 20260507123003 | 26 | 297 | 1.7 | 5.2 | 0.00 | 0.00 | 0.00 | 87 | 1011.9 |
| 20260507121504 | 24 | 310 | 1.7 | 3.5 | 0.00 | 0.00 | 0.00 | 91 | 1011.9 |
| 20260507120218 | 21 | 300 | 0.9 | 5.2 | 0.00 | 0.00 | 0.00 | 91 | 1011.8 |
| 20260507114717 | 20 | 296 | 0.0 | 1.7 | 0.00 | 0.00 | 0.00 | 89 | 1011.7 |
| 20260507113004 | 19 | 0 | 0.0 | 0.0 | 0.00 | 0.00 | 0.00 | 89 | 1011.4 |
| 20260507111504 | 19 | 296 | 0.0 | 0.9 | 0.00 | 0.00 | 0.00 | 88 | 1011.3 |
| 20260507110003 | 19 | 0 | 0.0 | 0.0 | 0.00 | 0.00 | 0.00 | 88 | 1011.2 |
| 20260507104504 | 19 | 296 | 0.0 | 1.7 | 0.00 | 0.00 | 0.00 | 88 | 1011.4 |
| 20260507103003 | 19 | 0 | 0.0 | 0.0 | 0.00 | 0.00 | 0.00 | 88 | 1011.4 |
| 20260507101718 | 19 | 0 | 0.0 | 0.0 | 0.00 | 0.00 | 0.00 | 88 | 1011.3 |
| 20260507100004 | 19 | 0 | 0.0 | 0.0 | 0.00 | 0.00 | 0.00 | 87 | 1011.4 |
| 20260507094718 | 19 | 0 | 0.0 | 0.0 | 0.00 | 0.00 | 0.00 | 87 | 1011.4 |
| 20260507093003 | 20 | 0 | 0.0 | 0.0 | 0.00 | 0.00 | 0.00 | 88 | 1011.5 |
| 20260507091503 | 20 | 0 | 0.0 | 0.0 | 0.00 | 0.00 | 0.00 | 87 | 1011.4 |
| 20260507090005 | 20 | 0 | 0.0 | 0.0 | 0.00 | 0.00 | 0.00 | 87 | 1011.5 |
| 20260507084503 | 20 | 0 | 0.0 | 0.0 | 0.00 | 0.00 | 0.00 | 87 | 1011.6 |
| 20260507083219 | 21 | 0 | 0.0 | 0.0 | 0.00 | 0.00 | 0.00 | 87 | 1011.6 |
| 20260507081504 | 21 | 0 | 0.0 | 0.0 | 0.00 | 0.00 | 0.00 | 87 | 1011.7 |
| 20260507080004 | 22 | 0 | 0.0 | 0.0 | 0.00 | 0.00 | 0.00 | 87 | 1011.6 |
| 20260507074503 | 22 | 0 | 0.0 | 0.0 | 0.00 | 0.00 | 0.00 | 86 | 1011.6 |
| 20260507073004 | 22 | 0 | 0.0 | 0.0 | 0.00 | 0.00 | 0.00 | 86 | 1011.8 |
| 20260507071717 | 23 | 0 | 0.0 | 0.0 | 0.00 | 0.00 | 0.00 | 86 | 1011.8 |
| 20260507070007 | 23 | 0 | 0.0 | 0.0 | 0.00 | 0.00 | 0.00 | 86 | 1011.9 |
| 20260507064503 | 23 | 0 | 0.0 | 0.0 | 0.00 | 0.00 | 0.00 | 85 | 1011.9 |
| 20260507063218 | 24 | 0 | 0.0 | 0.0 | 0.00 | 0.00 | 0.00 | 85 | 1012.0 |
| 20260507061504 | 24 | 0 | 0.0 | 0.0 | 0.00 | 0.00 | 0.00 | 84 | 1012.1 |
| 20260507060004 | 24 | 0 | 0.0 | 0.0 | 0.00 | 0.00 | 0.00 | 83 | 1012.3 |
| 20260507054503 | 25 | 0 | 0.0 | 0.0 | 0.00 | 0.00 | 0.00 | 83 | 1012.3 |
| 20260507053003 | 25 | 0 | 0.0 | 0.0 | 0.00 | 0.00 | 0.00 | 83 | 1012.5 |
| 20260507051503 | 26 | 0 | 0.0 | 0.0 | 0.00 | 0.00 | 0.00 | 82 | 1012.6 |
| 20260507050217 | 26 | 0 | 0.0 | 0.0 | 0.00 | 0.00 | 0.00 | 81 | 1012.7 |
| 20260507044503 | 27 | 0 | 0.0 | 0.0 | 0.00 | 0.00 | 0.00 | 80 | 1012.8 |